Time;durP1;ratioP1;P1;durP2;ratioP2;P2;SDS_P1;SDS_P2;PMS_P1;PMS_P2;Temp;Humidity;BMP_temperature;BMP_pressure;BME280_temperature;BME280_humidity;BME280_pressure;Samples;Min_cycle;Max_cycle;Signal;HPM_P1;HPM_P2
2021/03/10 00:01:12;;;;;;;43.03;21.58;;;;;;;4.06;92.04;100554.69;20896606;28;20045;-70
2021/03/10 00:11:14;;;;;;;42.10;20.02;;;;;;;4.15;89.79;100554.44;20914433;28;20084;-70
2021/03/10 00:21:15;;;;;;;48.28;22.92;;;;;;;4.13;89.34;100561.41;20896518;28;20522;-71
2021/03/10 00:31:16;;;;;;;43.42;20.80;;;;;;;4.20;89.32;100567.28;20895406;28;20049;-71
2021/03/10 00:41:17;;;;;;;48.30;23.15;;;;;;;4.25;89.05;100571.47;20894548;28;20184;-70
2021/03/10 00:51:18;;;;;;;53.33;23.73;;;;;;;4.32;88.82;100588.53;20908412;28;20128;-71
2021/03/10 01:01:18;;;;;;;48.72;23.85;;;;;;;4.35;88.09;100585.03;20909699;28;20044;-71
2021/03/10 01:11:20;;;;;;;51.90;24.63;;;;;;;4.37;88.52;100569.44;20910098;28;20148;-71
2021/03/10 01:21:21;;;;;;;53.75;25.45;;;;;;;4.40;88.65;100579.72;20909692;28;20048;-70
2021/03/10 01:31:21;;;;;;;49.60;23.88;;;;;;;4.42;88.24;100572.75;20908079;28;20049;-70
2021/03/10 01:41:23;;;;;;;47.33;23.45;;;;;;;4.41;88.74;100568.47;20907885;28;20459;-71
2021/03/10 01:51:24;;;;;;;48.35;23.50;;;;;;;4.41;89.11;100552.91;20906712;28;20045;-71
2021/03/10 02:01:24;;;;;;;52.55;24.60;;;;;;;4.37;90.84;100544.34;20905623;28;20102;-71
2021/03/10 02:11:35;;;;;;;53.33;24.98;;;;;;;4.23;90.80;100542.13;20904313;28;20076;-71
2021/03/10 02:21:54;;;;;;;51.80;25.30;;;;;;;4.05;92.92;100557.31;20903852;28;20057;-70
2021/03/10 02:31:57;;;;;;;53.05;25.48;;;;;;;3.96;92.13;100563.56;20902830;28;20041;-71
2021/03/10 02:41:59;;;;;;;49.20;24.15;;;;;;;3.95;91.30;100582.59;20902713;28;20041;-71
2021/03/10 02:52:01;;;;;;;50.15;25.52;;;;;;;3.88;91.57;100591.38;20900278;28;20405;-71
2021/03/10 03:02:02;;;;;;;52.70;24.73;;;;;;;3.87;92.17;100597.44;20900563;28;20049;-71
2021/03/10 03:12:04;;;;;;;49.45;25.02;;;;;;;3.86;92.38;100572.41;20901916;28;20060;-71
2021/03/10 03:22:06;;;;;;;55.17;25.33;;;;;;;3.78;93.03;100580.38;20902656;28;20096;-72
2021/03/10 03:32:07;;;;;;;53.00;24.95;;;;;;;3.78;92.27;100592.47;20917609;28;20056;-71
2021/03/10 03:42:09;;;;;;;55.42;26.90;;;;;;;3.82;92.16;100582.00;20919234;28;20080;-72
2021/03/10 03:52:10;;;;;;;52.75;25.00;;;;;;;3.77;92.90;100594.22;20917395;28;20093;-72
2021/03/10 04:02:11;;;;;;;53.58;25.73;;;;;;;3.76;92.97;100589.06;20914855;28;20045;-72
2021/03/10 04:12:12;;;;;;;53.75;25.83;;;;;;;3.80;93.88;100590.72;20914886;28;20056;-71
2021/03/10 04:22:13;;;;;;;55.80;26.33;;;;;;;3.76;94.06;100595.09;20913788;28;20408;-71
2021/03/10 04:32:14;;;;;;;53.33;25.90;;;;;;;3.82;93.65;100614.81;20911887;28;20067;-71
2021/03/10 04:42:15;;;;;;;56.13;26.83;;;;;;;3.78;93.98;100621.81;20912154;28;20555;-72
2021/03/10 04:52:16;;;;;;;50.67;25.42;;;;;;;3.78;94.71;100626.13;20909230;28;20389;-71
2021/03/10 05:02:17;;;;;;;54.72;26.38;;;;;;;3.80;95.15;100629.56;20910546;28;20049;-72
2021/03/10 05:12:18;;;;;;;56.13;27.17;;;;;;;3.80;94.65;100634.72;20910133;28;20548;-71
2021/03/10 05:22:19;;;;;;;51.10;25.27;;;;;;;3.77;94.85;100639.94;20905975;23;20046;-70
2021/03/10 05:32:20;;;;;;;58.45;26.52;;;;;;;3.73;95.75;100639.19;20786754;28;20053;-71
2021/03/10 05:42:21;;;;;;;55.55;27.10;;;;;;;3.74;96.21;100638.31;20782956;28;20069;-70
2021/03/10 05:52:22;;;;;;;61.05;29.08;;;;;;;3.76;96.00;100641.69;20906890;28;20045;-71
2021/03/10 06:02:24;;;;;;;58.03;26.30;;;;;;;3.80;95.08;100655.44;20919962;28;20045;-71
2021/03/10 06:12:43;;;;;;;58.95;28.10;;;;;;;3.85;96.20;100669.13;20925324;28;20132;-71
2021/03/10 06:22:44;;;;;;;59.20;28.80;;;;;;;3.90;96.45;100658.66;20890754;28;20052;-71
2021/03/10 06:32:45;;;;;;;56.05;27.92;;;;;;;3.96;94.62;100661.13;20863453;28;20053;-71
2021/03/10 06:42:54;;;;;;;57.45;28.15;;;;;;;4.00;95.86;100667.94;20820779;28;20049;-71
2021/03/10 06:52:55;;;;;;;59.13;27.80;;;;;;;4.13;94.27;100672.78;20766818;28;20053;-71
2021/03/10 07:03:00;;;;;;;64.17;31.20;;;;;;;4.16;94.45;100701.22;20767968;28;20073;-71
2021/03/10 07:13:03;;;;;;;59.50;29.00;;;;;;;4.19;94.30;100719.25;20697527;28;20460;-71
2021/03/10 07:23:10;;;;;;;66.75;31.67;;;;;;;4.45;93.18;100728.16;20692648;28;20077;-72
2021/03/10 07:33:21;;;;;;;61.25;29.90;;;;;;;4.67;91.91;100735.38;20682990;28;20046;-71
2021/03/10 07:43:37;;;;;;;61.45;30.60;;;;;;;4.91;90.42;100753.81;20793731;28;20050;-72
2021/03/10 07:53:38;;;;;;;63.30;30.58;;;;;;;5.27;88.99;100747.66;20799815;28;20050;-71
2021/03/10 08:03:43;;;;;;;63.47;31.20;;;;;;;5.69;87.74;100742.19;20790902;28;20073;-71
2021/03/10 08:13:47;;;;;;;61.85;31.98;;;;;;;6.28;85.02;100737.81;20806153;28;20493;-71
2021/03/10 08:23:48;;;;;;;60.03;29.35;;;;;;;6.42;83.11;100744.28;20805569;28;20493;-72
2021/03/10 08:33:51;;;;;;;63.92;31.58;;;;;;;6.44;83.46;100752.03;20815356;28;20045;-71
2021/03/10 08:44:02;;;;;;;63.65;31.33;;;;;;;6.78;82.77;100757.84;20813445;28;20053;-71
2021/03/10 08:54:05;;;;;;;56.88;30.08;;;;;;;6.98;80.22;100751.13;20828473;28;20084;-71
2021/03/10 09:04:07;;;;;;;60.03;30.20;;;;;;;7.22;79.45;100742.47;20822060;28;20041;-71
2021/03/10 09:14:08;;;;;;;59.85;29.55;;;;;;;7.56;77.44;100755.16;20817107;28;20041;-71
2021/03/10 09:24:09;;;;;;;53.80;28.38;;;;;;;7.87;77.23;100747.06;20802518;28;20041;-70
2021/03/10 09:34:13;;;;;;;57.63;30.27;;;;;;;8.17;74.70;100730.25;20828618;28;20460;-71
2021/03/10 09:44:14;;;;;;;53.17;27.88;;;;;;;8.46;73.31;100726.50;20807012;28;20455;-71
2021/03/10 09:54:15;;;;;;;48.67;25.98;;;;;;;9.30;68.91;100715.97;20824515;28;20046;-72
2021/03/10 10:04:16;;;;;;;44.83;23.90;;;;;;;8.86;67.58;100718.72;20806625;28;20042;-72
2021/03/10 10:14:17;;;;;;;49.92;26.58;;;;;;;9.63;65.13;100705.78;20828801;28;20045;-71
2021/03/10 10:24:18;;;;;;;32.88;18.25;;;;;;;9.21;60.02;100716.38;20819187;28;20087;-71
2021/03/10 10:34:19;;;;;;;31.50;16.95;;;;;;;9.64;60.44;100707.50;20825318;28;20555;-70
2021/03/10 10:44:20;;;;;;;43.63;24.13;;;;;;;10.06;61.41;100704.63;20806217;28;20041;-72
2021/03/10 10:54:21;;;;;;;46.45;24.73;;;;;;;10.37;60.76;100696.19;20815888;28;20641;-71
2021/03/10 11:04:23;;;;;;;39.42;22.08;;;;;;;10.24;58.95;100688.97;20816874;28;20118;-70
2021/03/10 11:14:24;;;;;;;35.92;21.15;;;;;;;10.57;57.14;100682.97;20816287;28;20053;-70
2021/03/10 11:24:25;;;;;;;41.00;21.88;;;;;;;10.72;55.58;100680.44;20820553;28;20551;-70
2021/03/10 11:34:30;;;;;;;34.40;19.13;;;;;;;10.47;55.09;100684.38;20821919;28;20394;-70
2021/03/10 11:44:31;;;;;;;44.17;25.77;;;;;;;10.09;59.53;100660.03;20824709;28;20452;-70
2021/03/10 11:54:33;;;;;;;44.30;24.02;;;;;;;10.10;58.17;100662.59;20833826;28;20045;-70
2021/03/10 12:04:34;;;;;;;39.10;22.67;;;;;;;10.00;58.86;100656.13;20832351;28;20045;-69
2021/03/10 12:14:35;;;;;;;33.58;19.35;;;;;;;10.73;56.39;100653.34;20831830;28;20091;-70
2021/03/10 12:24:38;;;;;;;36.05;20.67;;;;;;;10.43;55.28;100633.97;20830853;28;20045;-70
2021/03/10 12:34:39;;;;;;;34.55;18.35;;;;;;;10.82;53.66;100611.94;20829757;28;20045;-70
2021/03/10 12:44:42;;;;;;;31.20;18.80;;;;;;;11.01;53.77;100594.31;20830640;28;20049;-70
2021/03/10 12:54:43;;;;;;;30.65;18.63;;;;;;;10.82;52.13;100591.81;20828908;28;20080;-70
2021/03/10 13:04:44;;;;;;;28.77;16.40;;;;;;;10.42;54.75;100584.31;20829080;28;20041;-70
2021/03/10 13:14:46;;;;;;;25.23;15.15;;;;;;;10.34;53.29;100576.00;20808178;28;20069;-69
2021/03/10 13:24:47;;;;;;;22.52;12.40;;;;;;;11.23;51.47;100549.47;20807583;28;20497;-70
2021/03/10 13:34:48;;;;;;;25.20;15.48;;;;;;;11.40;50.79;100533.66;20800983;28;20049;-70
2021/03/10 13:44:50;;;;;;;25.08;14.57;;;;;;;11.16;51.62;100525.41;21064881;23;20060;-72
2021/03/10 13:54:53;;;;;;;23.20;14.15;;;;;;;10.87;49.66;100529.56;21061365;28;20063;-71
2021/03/10 14:04:54;;;;;;;25.88;14.13;;;;;;;10.85;52.01;100504.41;21028986;28;20044;-70
2021/03/10 14:14:55;;;;;;;29.70;15.25;;;;;;;10.86;51.07;100499.09;20980643;28;20557;-70
2021/03/10 14:24:56;;;;;;;24.58;12.43;;;;;;;10.78;50.17;100501.25;20987801;28;20048;-69
2021/03/10 14:34:57;;;;;;;20.65;11.57;;;;;;;11.23;48.06;100494.44;20985089;28;20052;-69
2021/03/10 14:44:58;;;;;;;21.48;12.13;;;;;;;11.00;48.44;100473.00;20985976;28;20052;-69
2021/03/10 14:54:59;;;;;;;19.42;11.20;;;;;;;10.78;49.01;100467.22;20985197;28;20055;-71
2021/03/10 15:05:00;;;;;;;17.20;10.13;;;;;;;10.67;49.37;100454.69;21026735;28;20117;-70
2021/03/10 15:15:01;;;;;;;19.55;11.40;;;;;;;10.71;50.26;100434.47;21029963;28;20040;-71
2021/03/10 15:25:07;;;;;;;18.73;10.43;;;;;;;10.41;49.19;100442.19;21082071;28;20407;-70
2021/03/10 15:35:11;;;;;;;18.23;10.13;;;;;;;10.37;48.66;100430.16;21076979;28;20059;-70
2021/03/10 15:45:12;;;;;;;16.45;9.73;;;;;;;10.24;49.32;100419.53;21051927;28;20044;-70
2021/03/10 15:55:13;;;;;;;17.35;9.80;;;;;;;10.14;50.66;100406.97;21078685;28;20044;-70
2021/03/10 16:05:14;;;;;;;18.42;9.07;;;;;;;9.99;50.07;100398.16;21053516;28;20054;-70
2021/03/10 16:15:16;;;;;;;18.15;9.77;;;;;;;9.86;50.50;100389.22;21043357;28;20121;-71
2021/03/10 16:25:17;;;;;;;17.73;9.73;;;;;;;9.71;51.49;100383.03;21071438;28;20045;-71
2021/03/10 16:35:18;;;;;;;21.63;9.88;;;;;;;9.59;51.75;100368.00;21064261;28;20422;-71
2021/03/10 16:45:20;;;;;;;15.15;9.55;;;;;;;9.39;53.58;100355.09;21056749;28;20051;-71
2021/03/10 16:55:25;;;;;;;17.23;9.48;;;;;;;9.24;52.41;100361.06;21059196;28;20075;-69
2021/03/10 17:05:26;;;;;;;15.75;8.57;;;;;;;9.10;53.64;100364.34;21050633;28;20051;-70
2021/03/10 17:15:27;;;;;;;18.95;10.13;;;;;;;8.92;54.06;100350.41;21049449;28;20140;-70
2021/03/10 17:25:45;;;;;;;16.45;9.30;;;;;;;8.69;55.18;100332.38;21038364;28;20062;-70
2021/03/10 17:35:46;;;;;;;18.63;9.80;;;;;;;8.54;55.17;100333.97;21047853;28;20044;-70
2021/03/10 17:45:47;;;;;;;27.05;13.63;;;;;;;8.39;56.68;100329.47;21062425;28;20044;-71
2021/03/10 17:55:57;;;;;;;24.05;12.23;;;;;;;8.34;56.62;100321.00;21059458;28;20051;-70
2021/03/10 18:05:58;;;;;;;27.08;14.25;;;;;;;8.24;56.82;100317.09;21068342;28;20495;-70
2021/03/10 18:15:59;;;;;;;28.92;14.10;;;;;;;8.11;58.54;100300.34;21040129;28;20052;-70
2021/03/10 18:26:01;;;;;;;28.27;14.82;;;;;;;8.08;58.67;100300.47;21039211;28;20085;-71
2021/03/10 18:36:02;;;;;;;26.70;15.52;;;;;;;8.00;61.15;100284.34;21052962;28;20495;-70
2021/03/10 18:46:03;;;;;;;22.83;12.85;;;;;;;7.85;62.35;100279.81;21052630;28;20047;-70
2021/03/10 18:56:04;;;;;;;25.52;14.45;;;;;;;7.86;61.00;100276.31;21030280;28;20075;-70
2021/03/10 19:06:05;;;;;;;21.48;11.80;;;;;;;7.86;59.02;100269.34;21043087;28;20051;-70
2021/03/10 19:16:06;;;;;;;22.23;12.38;;;;;;;7.87;58.08;100260.59;21056243;28;20044;-70
2021/03/10 19:26:09;;;;;;;17.98;10.05;;;;;;;7.90;57.92;100239.59;21051663;28;20047;-71
2021/03/10 19:36:11;;;;;;;20.23;10.10;;;;;;;7.83;57.84;100226.91;21051140;28;20040;-70
2021/03/10 19:46:12;;;;;;;28.02;14.55;;;;;;;7.82;58.08;100212.22;21054764;28;20488;-71
2021/03/10 19:56:13;;;;;;;35.75;18.35;;;;;;;7.78;58.60;100203.69;21046611;28;20549;-69
2021/03/10 20:06:14;;;;;;;24.05;14.00;;;;;;;7.78;58.50;100189.81;21052307;28;20466;-69
2021/03/10 20:16:15;;;;;;;19.35;10.85;;;;;;;7.74;58.84;100169.13;21045784;28;20437;-69
2021/03/10 20:26:16;;;;;;;36.35;17.10;;;;;;;7.71;58.07;100171.88;21054967;28;20098;-69
2021/03/10 20:36:17;;;;;;;20.48;10.20;;;;;;;7.60;59.01;100168.91;21056170;28;20048;-70
2021/03/10 20:46:19;;;;;;;38.90;17.80;;;;;;;7.58;58.96;100151.66;21067181;28;20041;-70
2021/03/10 20:56:20;;;;;;;28.27;13.52;;;;;;;7.52;59.16;100144.97;21066907;28;20043;-70
2021/03/10 21:06:21;;;;;;;18.20;9.40;;;;;;;7.52;59.57;100125.88;21054435;28;20042;-69
2021/03/10 21:16:22;;;;;;;15.70;8.57;;;;;;;7.47;60.43;100105.25;21048595;28;20131;-70
2021/03/10 21:26:24;;;;;;;14.02;8.50;;;;;;;7.40;58.49;100092.63;21065885;28;20072;-70
2021/03/10 21:36:25;;;;;;;21.58;10.68;;;;;;;7.24;62.14;100082.06;21059168;28;20558;-70
2021/03/10 21:46:26;;;;;;;32.33;15.13;;;;;;;7.08;63.26;100057.63;21044344;28;20099;-71
2021/03/10 21:56:27;;;;;;;25.30;12.85;;;;;;;7.04;62.18;100043.09;21051069;28;20450;-70
2021/03/10 22:06:28;;;;;;;22.65;11.82;;;;;;;7.10;61.96;100024.59;21046264;28;20040;-70
2021/03/10 22:16:29;;;;;;;16.83;9.55;;;;;;;7.11;61.71;100002.88;21039268;28;20407;-70
2021/03/10 22:26:30;;;;;;;21.45;10.00;;;;;;;7.16;61.29;99985.28;21045732;28;20130;-71
2021/03/10 22:36:32;;;;;;;18.55;9.43;;;;;;;7.23;60.79;99971.88;21055531;28;20041;-71
2021/03/10 22:46:33;;;;;;;18.55;9.27;;;;;;;7.46;59.49;99959.53;21057279;28;20063;-71
2021/03/10 22:56:38;;;;;;;17.10;8.93;;;;;;;7.62;58.01;99950.88;21033289;28;20052;-71
2021/03/10 23:06:39;;;;;;;14.57;8.40;;;;;;;7.65;57.93;99955.13;21047238;28;20086;-71
2021/03/10 23:16:40;;;;;;;14.27;8.30;;;;;;;7.62;58.54;99950.88;21037306;28;20044;-71
2021/03/10 23:26:41;;;;;;;19.65;9.35;;;;;;;7.63;58.56;99942.16;21049781;28;20052;-71
2021/03/10 23:36:42;;;;;;;17.55;10.02;;;;;;;7.73;58.39;99921.69;21048618;28;20053;-70
2021/03/10 23:46:43;;;;;;;19.20;9.48;;;;;;;7.68;58.24;99926.28;21072802;28;20052;-71
2021/03/10 23:56:44;;;;;;;20.48;10.05;;;;;;;7.63;60.71;99920.47;21073272;28;20044;-71
